sensor_id;sensor_type;location;lat;lon;timestamp;P1;durP1;ratioP1;P2;durP2;ratioP2
18661;SDS011;61528;49.456;11.098;2023-11-21T00:02:10;4.53;;;1.50;;
18661;SDS011;61528;49.456;11.098;2023-11-21T00:04:36;4.20;;;1.93;;
18661;SDS011;61528;49.456;11.098;2023-11-21T00:07:02;4.57;;;1.53;;
18661;SDS011;61528;49.456;11.098;2023-11-21T00:09:28;3.13;;;1.63;;
18661;SDS011;61528;49.456;11.098;2023-11-21T00:11:55;3.17;;;1.83;;
18661;SDS011;61528;49.456;11.098;2023-11-21T00:14:20;2.23;;;1.57;;
18661;SDS011;61528;49.456;11.098;2023-11-21T00:16:46;2.07;;;1.40;;
18661;SDS011;61528;49.456;11.098;2023-11-21T00:19:12;3.93;;;1.33;;
18661;SDS011;61528;49.456;11.098;2023-11-21T00:21:41;3.30;;;1.67;;
18661;SDS011;61528;49.456;11.098;2023-11-21T00:24:11;2.93;;;1.40;;
18661;SDS011;61528;49.456;11.098;2023-11-21T00:26:42;2.60;;;1.50;;
18661;SDS011;61528;49.456;11.098;2023-11-21T00:29:07;4.40;;;1.87;;
18661;SDS011;61528;49.456;11.098;2023-11-21T00:31:34;2.07;;;1.50;;
18661;SDS011;61528;49.456;11.098;2023-11-21T00:34:04;3.03;;;1.37;;
18661;SDS011;61528;49.456;11.098;2023-11-21T00:36:33;3.07;;;1.40;;
18661;SDS011;61528;49.456;11.098;2023-11-21T00:38:59;3.83;;;1.33;;
18661;SDS011;61528;49.456;11.098;2023-11-21T00:44:14;2.83;;;1.30;;
18661;SDS011;61528;49.456;11.098;2023-11-21T00:46:42;2.73;;;1.03;;
18661;SDS011;61528;49.456;11.098;2023-11-21T00:49:08;1.60;;;1.00;;
18661;SDS011;61528;49.456;11.098;2023-11-21T00:51:35;1.73;;;1.40;;
18661;SDS011;61528;49.456;11.098;2023-11-21T00:56:32;2.30;;;1.03;;
18661;SDS011;61528;49.456;11.098;2023-11-21T00:59:00;3.27;;;1.17;;
18661;SDS011;61528;49.456;11.098;2023-11-21T01:01:31;3.30;;;1.30;;
18661;SDS011;61528;49.456;11.098;2023-11-21T01:03:57;1.90;;;1.10;;
18661;SDS011;61528;49.456;11.098;2023-11-21T01:06:23;2.87;;;1.40;;
18661;SDS011;61528;49.456;11.098;2023-11-21T01:08:50;2.17;;;1.10;;
18661;SDS011;61528;49.456;11.098;2023-11-21T01:11:16;3.73;;;1.30;;
18661;SDS011;61528;49.456;11.098;2023-11-21T01:13:42;2.77;;;1.13;;
18661;SDS011;61528;49.456;11.098;2023-11-21T01:16:10;2.37;;;1.00;;
18661;SDS011;61528;49.456;11.098;2023-11-21T01:18:36;2.30;;;1.33;;
18661;SDS011;61528;49.456;11.098;2023-11-21T01:21:03;3.87;;;1.43;;
18661;SDS011;61528;49.456;11.098;2023-11-21T01:23:29;3.13;;;1.40;;
18661;SDS011;61528;49.456;11.098;2023-11-21T01:25:56;2.13;;;1.53;;
18661;SDS011;61528;49.456;11.098;2023-11-21T01:28:22;4.20;;;1.83;;
18661;SDS011;61528;49.456;11.098;2023-11-21T01:30:51;4.10;;;1.47;;
18661;SDS011;61528;49.456;11.098;2023-11-21T01:33:18;2.57;;;1.40;;
18661;SDS011;61528;49.456;11.098;2023-11-21T01:35:44;3.27;;;1.43;;
18661;SDS011;61528;49.456;11.098;2023-11-21T01:38:14;3.23;;;1.53;;
18661;SDS011;61528;49.456;11.098;2023-11-21T01:40:42;2.80;;;1.40;;
18661;SDS011;61528;49.456;11.098;2023-11-21T01:43:11;3.73;;;1.40;;
18661;SDS011;61528;49.456;11.098;2023-11-21T01:45:40;3.47;;;1.30;;
18661;SDS011;61528;49.456;11.098;2023-11-21T01:48:06;4.10;;;1.70;;
18661;SDS011;61528;49.456;11.098;2023-11-21T01:50:33;2.60;;;1.60;;
18661;SDS011;61528;49.456;11.098;2023-11-21T01:52:59;4.27;;;1.20;;
18661;SDS011;61528;49.456;11.098;2023-11-21T01:55:27;2.80;;;1.33;;
18661;SDS011;61528;49.456;11.098;2023-11-21T01:57:53;3.73;;;1.30;;
18661;SDS011;61528;49.456;11.098;2023-11-21T02:00:21;1.67;;;1.10;;
18661;SDS011;61528;49.456;11.098;2023-11-21T02:02:48;2.70;;;1.30;;
18661;SDS011;61528;49.456;11.098;2023-11-21T02:05:17;2.80;;;1.20;;
18661;SDS011;61528;49.456;11.098;2023-11-21T02:07:44;3.40;;;1.33;;
18661;SDS011;61528;49.456;11.098;2023-11-21T02:10:14;4.57;;;1.40;;
18661;SDS011;61528;49.456;11.098;2023-11-21T02:12:41;2.93;;;1.30;;
18661;SDS011;61528;49.456;11.098;2023-11-21T02:15:08;2.17;;;1.23;;
18661;SDS011;61528;49.456;11.098;2023-11-21T02:17:42;1.70;;;1.10;;
18661;SDS011;61528;49.456;11.098;2023-11-21T02:20:10;2.73;;;1.10;;
18661;SDS011;61528;49.456;11.098;2023-11-21T02:22:41;2.07;;;0.97;;
18661;SDS011;61528;49.456;11.098;2023-11-21T02:25:11;3.40;;;0.90;;
18661;SDS011;61528;49.456;11.098;2023-11-21T02:27:37;1.60;;;1.03;;
18661;SDS011;61528;49.456;11.098;2023-11-21T02:30:03;1.83;;;1.20;;
18661;SDS011;61528;49.456;11.098;2023-11-21T02:32:30;1.57;;;1.17;;
18661;SDS011;61528;49.456;11.098;2023-11-21T02:34:56;4.63;;;1.30;;
18661;SDS011;61528;49.456;11.098;2023-11-21T02:37:26;1.93;;;1.07;;
18661;SDS011;61528;49.456;11.098;2023-11-21T02:39:52;2.23;;;1.20;;
18661;SDS011;61528;49.456;11.098;2023-11-21T02:42:18;3.10;;;1.30;;
18661;SDS011;61528;49.456;11.098;2023-11-21T02:44:44;3.00;;;1.17;;
18661;SDS011;61528;49.456;11.098;2023-11-21T02:47:10;2.37;;;1.17;;
18661;SDS011;61528;49.456;11.098;2023-11-21T02:49:36;3.00;;;1.20;;
18661;SDS011;61528;49.456;11.098;2023-11-21T02:52:02;2.07;;;1.20;;
18661;SDS011;61528;49.456;11.098;2023-11-21T02:54:28;1.77;;;1.20;;
18661;SDS011;61528;49.456;11.098;2023-11-21T02:56:54;3.53;;;1.30;;
18661;SDS011;61528;49.456;11.098;2023-11-21T02:59:20;2.13;;;1.07;;
18661;SDS011;61528;49.456;11.098;2023-11-21T03:01:46;2.37;;;1.10;;
18661;SDS011;61528;49.456;11.098;2023-11-21T03:04:12;3.17;;;1.37;;
18661;SDS011;61528;49.456;11.098;2023-11-21T03:06:43;2.03;;;1.13;;
18661;SDS011;61528;49.456;11.098;2023-11-21T03:09:11;4.23;;;1.40;;
18661;SDS011;61528;49.456;11.098;2023-11-21T03:11:37;2.03;;;1.43;;
18661;SDS011;61528;49.456;11.098;2023-11-21T03:14:03;2.50;;;1.43;;
18661;SDS011;61528;49.456;11.098;2023-11-21T03:16:31;2.97;;;1.10;;
18661;SDS011;61528;49.456;11.098;2023-11-21T03:18:57;3.43;;;1.60;;
18661;SDS011;61528;49.456;11.098;2023-11-21T03:21:24;3.63;;;1.43;;
18661;SDS011;61528;49.456;11.098;2023-11-21T03:26:21;4.50;;;1.73;;
18661;SDS011;61528;49.456;11.098;2023-11-21T03:28:47;1.93;;;1.27;;
18661;SDS011;61528;49.456;11.098;2023-11-21T03:31:13;2.60;;;1.20;;
18661;SDS011;61528;49.456;11.098;2023-11-21T03:33:42;2.67;;;1.40;;
18661;SDS011;61528;49.456;11.098;2023-11-21T03:36:08;3.33;;;1.40;;
18661;SDS011;61528;49.456;11.098;2023-11-21T03:38:34;4.20;;;1.70;;
18661;SDS011;61528;49.456;11.098;2023-11-21T03:41:01;2.77;;;1.47;;
18661;SDS011;61528;49.456;11.098;2023-11-21T03:43:27;4.60;;;1.50;;
18661;SDS011;61528;49.456;11.098;2023-11-21T03:45:53;2.87;;;1.43;;
18661;SDS011;61528;49.456;11.098;2023-11-21T03:48:19;3.10;;;1.70;;
18661;SDS011;61528;49.456;11.098;2023-11-21T03:50:45;6.87;;;1.60;;
18661;SDS011;61528;49.456;11.098;2023-11-21T03:53:12;4.13;;;1.50;;
18661;SDS011;61528;49.456;11.098;2023-11-21T03:55:38;3.60;;;1.50;;
18661;SDS011;61528;49.456;11.098;2023-11-21T03:58:06;3.47;;;1.80;;
18661;SDS011;61528;49.456;11.098;2023-11-21T04:00:32;2.03;;;1.40;;
18661;SDS011;61528;49.456;11.098;2023-11-21T04:02:58;2.83;;;1.57;;
18661;SDS011;61528;49.456;11.098;2023-11-21T04:05:24;3.17;;;1.70;;
18661;SDS011;61528;49.456;11.098;2023-11-21T04:07:50;3.70;;;1.67;;
18661;SDS011;61528;49.456;11.098;2023-11-21T04:10:16;3.10;;;1.70;;
18661;SDS011;61528;49.456;11.098;2023-11-21T04:12:43;2.80;;;1.73;;
18661;SDS011;61528;49.456;11.098;2023-11-21T04:15:10;3.00;;;1.70;;
18661;SDS011;61528;49.456;11.098;2023-11-21T04:17:38;3.43;;;1.87;;
18661;SDS011;61528;49.456;11.098;2023-11-21T04:20:05;4.20;;;1.63;;
18661;SDS011;61528;49.456;11.098;2023-11-21T04:22:38;5.77;;;1.80;;
18661;SDS011;61528;49.456;11.098;2023-11-21T04:25:10;1.90;;;1.70;;
18661;SDS011;61528;49.456;11.098;2023-11-21T04:27:39;3.27;;;1.90;;
18661;SDS011;61528;49.456;11.098;2023-11-21T04:30:06;2.77;;;1.80;;
18661;SDS011;61528;49.456;11.098;2023-11-21T04:32:33;5.37;;;1.90;;
18661;SDS011;61528;49.456;11.098;2023-11-21T04:34:59;2.93;;;1.73;;
18661;SDS011;61528;49.456;11.098;2023-11-21T04:37:25;6.60;;;1.70;;
18661;SDS011;61528;49.456;11.098;2023-11-21T04:39:51;4.90;;;1.90;;
18661;SDS011;61528;49.456;11.098;2023-11-21T04:42:17;4.97;;;1.87;;
18661;SDS011;61528;49.456;11.098;2023-11-21T04:44:43;4.67;;;1.83;;
18661;SDS011;61528;49.456;11.098;2023-11-21T04:47:09;4.03;;;1.97;;
18661;SDS011;61528;49.456;11.098;2023-11-21T04:49:35;4.43;;;2.00;;
18661;SDS011;61528;49.456;11.098;2023-11-21T04:52:02;5.77;;;1.97;;
18661;SDS011;61528;49.456;11.098;2023-11-21T04:54:30;3.50;;;1.73;;
18661;SDS011;61528;49.456;11.098;2023-11-21T04:56:58;5.33;;;1.77;;
18661;SDS011;61528;49.456;11.098;2023-11-21T04:59:25;2.70;;;1.87;;
18661;SDS011;61528;49.456;11.098;2023-11-21T05:01:53;3.70;;;2.20;;
18661;SDS011;61528;49.456;11.098;2023-11-21T05:04:21;2.23;;;1.83;;
18661;SDS011;61528;49.456;11.098;2023-11-21T05:09:54;30.43;;;15.73;;
18661;SDS011;61528;49.456;11.098;2023-11-21T05:12:22;4.23;;;3.00;;
18661;SDS011;61528;49.456;11.098;2023-11-21T05:14:51;2.77;;;2.40;;
18661;SDS011;61528;49.456;11.098;2023-11-21T05:22:52;3.00;;;1.80;;
18661;SDS011;61528;49.456;11.098;2023-11-21T05:30:48;2.93;;;1.77;;
18661;SDS011;61528;49.456;11.098;2023-11-21T05:33:15;4.03;;;1.93;;
18661;SDS011;61528;49.456;11.098;2023-11-21T05:35:42;1.90;;;1.70;;
18661;SDS011;61528;49.456;11.098;2023-11-21T05:38:08;4.10;;;1.80;;
18661;SDS011;61528;49.456;11.098;2023-11-21T05:40:34;2.20;;;1.87;;
18661;SDS011;61528;49.456;11.098;2023-11-21T05:43:02;2.90;;;1.87;;
18661;SDS011;61528;49.456;11.098;2023-11-21T05:45:30;2.43;;;1.97;;
18661;SDS011;61528;49.456;11.098;2023-11-21T05:47:58;3.13;;;1.90;;
18661;SDS011;61528;49.456;11.098;2023-11-21T05:50:24;3.53;;;2.10;;
18661;SDS011;61528;49.456;11.098;2023-11-21T05:52:50;3.10;;;2.50;;
18661;SDS011;61528;49.456;11.098;2023-11-21T05:55:18;4.20;;;2.20;;
18661;SDS011;61528;49.456;11.098;2023-11-21T05:57:46;3.40;;;2.70;;
18661;SDS011;61528;49.456;11.098;2023-11-21T06:00:14;4.03;;;2.53;;
18661;SDS011;61528;49.456;11.098;2023-11-21T06:02:53;3.37;;;2.47;;
18661;SDS011;61528;49.456;11.098;2023-11-21T06:05:20;5.10;;;2.40;;
18661;SDS011;61528;49.456;11.098;2023-11-21T06:07:50;3.97;;;2.50;;
18661;SDS011;61528;49.456;11.098;2023-11-21T06:10:24;4.57;;;2.50;;
18661;SDS011;61528;49.456;11.098;2023-11-21T06:12:51;4.13;;;2.50;;
18661;SDS011;61528;49.456;11.098;2023-11-21T06:15:18;5.10;;;2.90;;
18661;SDS011;61528;49.456;11.098;2023-11-21T06:17:48;4.97;;;2.90;;
18661;SDS011;61528;49.456;11.098;2023-11-21T06:20:17;2.73;;;2.23;;
18661;SDS011;61528;49.456;11.098;2023-11-21T06:22:45;3.10;;;2.47;;
18661;SDS011;61528;49.456;11.098;2023-11-21T06:25:12;4.97;;;2.30;;
18661;SDS011;61528;49.456;11.098;2023-11-21T06:27:40;3.47;;;2.30;;
18661;SDS011;61528;49.456;11.098;2023-11-21T06:30:10;4.30;;;2.50;;
18661;SDS011;61528;49.456;11.098;2023-11-21T06:32:38;2.73;;;2.30;;
18661;SDS011;61528;49.456;11.098;2023-11-21T06:35:05;4.23;;;2.90;;
18661;SDS011;61528;49.456;11.098;2023-11-21T06:37:32;4.10;;;3.00;;
18661;SDS011;61528;49.456;11.098;2023-11-21T06:39:59;4.93;;;3.10;;
18661;SDS011;61528;49.456;11.098;2023-11-21T06:42:26;3.20;;;2.80;;
18661;SDS011;61528;49.456;11.098;2023-11-21T06:44:54;4.10;;;2.83;;
18661;SDS011;61528;49.456;11.098;2023-11-21T06:47:24;4.07;;;3.00;;
18661;SDS011;61528;49.456;11.098;2023-11-21T06:49:51;5.17;;;3.23;;
18661;SDS011;61528;49.456;11.098;2023-11-21T06:52:18;4.83;;;2.80;;
18661;SDS011;61528;49.456;11.098;2023-11-21T06:54:44;6.03;;;2.93;;
18661;SDS011;61528;49.456;11.098;2023-11-21T06:57:11;4.23;;;3.00;;
18661;SDS011;61528;49.456;11.098;2023-11-21T06:59:37;5.17;;;2.73;;
18661;SDS011;61528;49.456;11.098;2023-11-21T07:02:03;5.17;;;2.83;;
18661;SDS011;61528;49.456;11.098;2023-11-21T07:04:32;3.77;;;2.60;;
18661;SDS011;61528;49.456;11.098;2023-11-21T07:06:59;6.93;;;3.10;;
18661;SDS011;61528;49.456;11.098;2023-11-21T07:12:16;5.17;;;2.90;;
18661;SDS011;61528;49.456;11.098;2023-11-21T07:14:43;4.60;;;3.10;;
18661;SDS011;61528;49.456;11.098;2023-11-21T07:17:12;4.87;;;2.80;;
18661;SDS011;61528;49.456;11.098;2023-11-21T07:19:39;3.50;;;2.97;;
18661;SDS011;61528;49.456;11.098;2023-11-21T07:22:06;4.30;;;3.00;;
18661;SDS011;61528;49.456;11.098;2023-11-21T07:24:33;7.23;;;3.10;;
18661;SDS011;61528;49.456;11.098;2023-11-21T07:27:00;5.23;;;3.30;;
18661;SDS011;61528;49.456;11.098;2023-11-21T07:29:26;6.30;;;3.47;;
18661;SDS011;61528;49.456;11.098;2023-11-21T07:31:55;5.27;;;3.77;;
18661;SDS011;61528;49.456;11.098;2023-11-21T07:34:21;3.47;;;3.17;;
18661;SDS011;61528;49.456;11.098;2023-11-21T07:36:47;4.33;;;3.20;;
18661;SDS011;61528;49.456;11.098;2023-11-21T07:39:13;5.30;;;3.30;;
18661;SDS011;61528;49.456;11.098;2023-11-21T07:41:41;7.20;;;3.70;;
18661;SDS011;61528;49.456;11.098;2023-11-21T07:44:13;5.27;;;4.00;;
18661;SDS011;61528;49.456;11.098;2023-11-21T07:46:41;6.03;;;4.00;;
18661;SDS011;61528;49.456;11.098;2023-11-21T07:49:07;5.10;;;3.70;;
18661;SDS011;61528;49.456;11.098;2023-11-21T07:51:34;3.67;;;3.23;;
18661;SDS011;61528;49.456;11.098;2023-11-21T07:54:00;5.10;;;3.40;;
18661;SDS011;61528;49.456;11.098;2023-11-21T07:56:27;7.43;;;3.83;;
18661;SDS011;61528;49.456;11.098;2023-11-21T07:58:53;6.50;;;3.93;;
18661;SDS011;61528;49.456;11.098;2023-11-21T08:01:19;5.13;;;3.87;;
18661;SDS011;61528;49.456;11.098;2023-11-21T08:03:45;6.17;;;3.77;;
18661;SDS011;61528;49.456;11.098;2023-11-21T08:06:16;5.80;;;3.50;;
18661;SDS011;61528;49.456;11.098;2023-11-21T08:08:43;4.43;;;3.53;;
18661;SDS011;61528;49.456;11.098;2023-11-21T08:11:09;7.20;;;3.80;;
18661;SDS011;61528;49.456;11.098;2023-11-21T08:13:37;5.27;;;4.47;;
18661;SDS011;61528;49.456;11.098;2023-11-21T08:16:03;5.20;;;3.80;;
18661;SDS011;61528;49.456;11.098;2023-11-21T08:18:32;5.80;;;3.67;;
18661;SDS011;61528;49.456;11.098;2023-11-21T08:20:59;5.10;;;3.97;;
18661;SDS011;61528;49.456;11.098;2023-11-21T08:23:25;4.03;;;3.57;;
18661;SDS011;61528;49.456;11.098;2023-11-21T08:25:52;6.90;;;3.90;;
18661;SDS011;61528;49.456;11.098;2023-11-21T08:28:22;6.50;;;3.77;;
18661;SDS011;61528;49.456;11.098;2023-11-21T08:30:57;5.37;;;3.70;;
18661;SDS011;61528;49.456;11.098;2023-11-21T08:33:24;5.97;;;3.97;;
18661;SDS011;61528;49.456;11.098;2023-11-21T08:35:51;6.53;;;4.90;;
18661;SDS011;61528;49.456;11.098;2023-11-21T08:38:18;5.87;;;5.20;;
18661;SDS011;61528;49.456;11.098;2023-11-21T08:40:44;7.17;;;5.17;;
18661;SDS011;61528;49.456;11.098;2023-11-21T08:43:11;7.27;;;5.50;;
18661;SDS011;61528;49.456;11.098;2023-11-21T08:45:37;8.30;;;6.17;;
18661;SDS011;61528;49.456;11.098;2023-11-21T08:48:03;8.13;;;6.33;;
18661;SDS011;61528;49.456;11.098;2023-11-21T08:50:31;6.70;;;5.07;;
18661;SDS011;61528;49.456;11.098;2023-11-21T08:53:00;5.07;;;4.13;;
18661;SDS011;61528;49.456;11.098;2023-11-21T08:55:26;5.53;;;4.27;;
18661;SDS011;61528;49.456;11.098;2023-11-21T08:57:53;7.17;;;5.40;;
18661;SDS011;61528;49.456;11.098;2023-11-21T09:00:19;6.73;;;5.27;;
18661;SDS011;61528;49.456;11.098;2023-11-21T09:02:46;6.27;;;5.53;;
18661;SDS011;61528;49.456;11.098;2023-11-21T09:05:12;7.23;;;6.30;;
18661;SDS011;61528;49.456;11.098;2023-11-21T09:07:39;10.40;;;7.10;;
18661;SDS011;61528;49.456;11.098;2023-11-21T09:10:07;8.27;;;7.00;;
18661;SDS011;61528;49.456;11.098;2023-11-21T09:12:35;7.90;;;6.67;;
18661;SDS011;61528;49.456;11.098;2023-11-21T09:15:03;6.83;;;6.13;;
18661;SDS011;61528;49.456;11.098;2023-11-21T09:17:30;8.97;;;6.07;;
18661;SDS011;61528;49.456;11.098;2023-11-21T09:20:00;7.67;;;5.93;;
18661;SDS011;61528;49.456;11.098;2023-11-21T09:22:26;9.07;;;6.07;;
18661;SDS011;61528;49.456;11.098;2023-11-21T09:24:55;6.93;;;5.80;;
18661;SDS011;61528;49.456;11.098;2023-11-21T09:27:23;7.07;;;5.63;;
18661;SDS011;61528;49.456;11.098;2023-11-21T09:29:52;8.77;;;5.73;;
18661;SDS011;61528;49.456;11.098;2023-11-21T09:32:18;6.07;;;5.47;;
18661;SDS011;61528;49.456;11.098;2023-11-21T09:34:47;8.50;;;5.80;;
18661;SDS011;61528;49.456;11.098;2023-11-21T09:37:14;6.63;;;5.53;;
18661;SDS011;61528;49.456;11.098;2023-11-21T09:39:40;8.87;;;5.63;;
18661;SDS011;61528;49.456;11.098;2023-11-21T09:42:09;9.03;;;6.33;;
18661;SDS011;61528;49.456;11.098;2023-11-21T09:47:40;7.47;;;6.67;;
18661;SDS011;61528;49.456;11.098;2023-11-21T09:55:21;7.47;;;6.77;;
18661;SDS011;61528;49.456;11.098;2023-11-21T09:57:48;8.67;;;6.37;;
18661;SDS011;61528;49.456;11.098;2023-11-21T10:00:15;6.37;;;5.60;;
18661;SDS011;61528;49.456;11.098;2023-11-21T10:02:44;8.20;;;5.77;;
18661;SDS011;61528;49.456;11.098;2023-11-21T10:05:13;6.00;;;5.40;;
18661;SDS011;61528;49.456;11.098;2023-11-21T10:07:42;6.20;;;5.60;;
18661;SDS011;61528;49.456;11.098;2023-11-21T10:15:51;6.30;;;5.30;;
18661;SDS011;61528;49.456;11.098;2023-11-21T10:18:18;7.60;;;5.37;;
18661;SDS011;61528;49.456;11.098;2023-11-21T10:23:32;6.37;;;4.77;;
18661;SDS011;61528;49.456;11.098;2023-11-21T10:25:58;7.13;;;4.40;;
18661;SDS011;61528;49.456;11.098;2023-11-21T10:28:25;5.37;;;4.60;;
18661;SDS011;61528;49.456;11.098;2023-11-21T10:30:52;4.93;;;4.43;;
18661;SDS011;61528;49.456;11.098;2023-11-21T10:33:27;5.47;;;4.23;;
18661;SDS011;61528;49.456;11.098;2023-11-21T10:35:54;4.77;;;4.20;;
18661;SDS011;61528;49.456;11.098;2023-11-21T10:38:21;43.13;;;11.27;;
18661;SDS011;61528;49.456;11.098;2023-11-21T10:40:50;7.23;;;5.23;;
18661;SDS011;61528;49.456;11.098;2023-11-21T10:43:17;6.13;;;4.53;;
18661;SDS011;61528;49.456;11.098;2023-11-21T10:45:52;4.80;;;4.23;;
18661;SDS011;61528;49.456;11.098;2023-11-21T10:48:18;5.47;;;3.90;;
18661;SDS011;61528;49.456;11.098;2023-11-21T10:50:48;5.10;;;4.37;;
18661;SDS011;61528;49.456;11.098;2023-11-21T10:53:15;5.07;;;4.40;;
18661;SDS011;61528;49.456;11.098;2023-11-21T10:55:41;7.23;;;4.17;;
18661;SDS011;61528;49.456;11.098;2023-11-21T10:58:09;5.60;;;3.97;;
18661;SDS011;61528;49.456;11.098;2023-11-21T11:00:44;4.40;;;4.00;;
18661;SDS011;61528;49.456;11.098;2023-11-21T11:03:12;5.90;;;3.47;;
18661;SDS011;61528;49.456;11.098;2023-11-21T11:05:41;5.33;;;3.80;;
18661;SDS011;61528;49.456;11.098;2023-11-21T11:08:24;4.37;;;3.67;;
18661;SDS011;61528;49.456;11.098;2023-11-21T11:10:55;5.23;;;3.50;;
18661;SDS011;61528;49.456;11.098;2023-11-21T11:13:31;5.60;;;4.20;;
18661;SDS011;61528;49.456;11.098;2023-11-21T11:16:00;5.63;;;4.33;;
18661;SDS011;61528;49.456;11.098;2023-11-21T11:18:28;3.57;;;2.70;;
18661;SDS011;61528;49.456;11.098;2023-11-21T11:20:57;3.60;;;2.90;;
18661;SDS011;61528;49.456;11.098;2023-11-21T11:26:43;3.93;;;3.00;;
18661;SDS011;61528;49.456;11.098;2023-11-21T11:29:18;3.03;;;2.60;;
18661;SDS011;61528;49.456;11.098;2023-11-21T11:34:41;2.40;;;2.20;;
18661;SDS011;61528;49.456;11.098;2023-11-21T11:37:15;3.57;;;2.13;;
18661;SDS011;61528;49.456;11.098;2023-11-21T11:39:44;3.37;;;2.30;;
18661;SDS011;61528;49.456;11.098;2023-11-21T11:42:16;3.03;;;2.40;;
18661;SDS011;61528;49.456;11.098;2023-11-21T11:47:15;2.80;;;2.60;;
18661;SDS011;61528;49.456;11.098;2023-11-21T11:52:45;3.13;;;2.87;;
18661;SDS011;61528;49.456;11.098;2023-11-21T11:55:14;3.23;;;2.93;;
18661;SDS011;61528;49.456;11.098;2023-11-21T11:57:45;3.20;;;2.90;;
18661;SDS011;61528;49.456;11.098;2023-11-21T12:00:19;4.50;;;3.37;;
18661;SDS011;61528;49.456;11.098;2023-11-21T12:02:53;4.10;;;2.70;;
18661;SDS011;61528;49.456;11.098;2023-11-21T12:05:22;2.97;;;2.47;;
18661;SDS011;61528;49.456;11.098;2023-11-21T12:10:23;4.17;;;2.80;;
18661;SDS011;61528;49.456;11.098;2023-11-21T12:13:00;3.10;;;2.70;;
18661;SDS011;61528;49.456;11.098;2023-11-21T12:15:33;3.60;;;3.20;;
18661;SDS011;61528;49.456;11.098;2023-11-21T12:18:00;3.27;;;2.50;;
18661;SDS011;61528;49.456;11.098;2023-11-21T12:20:27;3.60;;;2.93;;
18661;SDS011;61528;49.456;11.098;2023-11-21T12:22:54;3.53;;;3.07;;
18661;SDS011;61528;49.456;11.098;2023-11-21T12:25:25;3.77;;;3.07;;
18661;SDS011;61528;49.456;11.098;2023-11-21T12:27:54;4.00;;;3.60;;
18661;SDS011;61528;49.456;11.098;2023-11-21T12:30:23;3.73;;;3.43;;
18661;SDS011;61528;49.456;11.098;2023-11-21T12:32:54;3.90;;;3.60;;
18661;SDS011;61528;49.456;11.098;2023-11-21T12:35:25;5.13;;;3.50;;
18661;SDS011;61528;49.456;11.098;2023-11-21T12:37:56;4.20;;;3.50;;
18661;SDS011;61528;49.456;11.098;2023-11-21T12:40:24;5.20;;;3.97;;
18661;SDS011;61528;49.456;11.098;2023-11-21T12:42:52;5.87;;;4.27;;
18661;SDS011;61528;49.456;11.098;2023-11-21T12:45:20;4.20;;;3.70;;
18661;SDS011;61528;49.456;11.098;2023-11-21T12:48:00;4.60;;;4.03;;
18661;SDS011;61528;49.456;11.098;2023-11-21T12:50:34;5.03;;;4.13;;
18661;SDS011;61528;49.456;11.098;2023-11-21T12:53:06;4.37;;;3.97;;
18661;SDS011;61528;49.456;11.098;2023-11-21T12:55:38;4.50;;;3.63;;
18661;SDS011;61528;49.456;11.098;2023-11-21T12:58:06;7.83;;;4.07;;
18661;SDS011;61528;49.456;11.098;2023-11-21T13:03:06;5.07;;;3.77;;
18661;SDS011;61528;49.456;11.098;2023-11-21T13:05:39;5.07;;;4.13;;
18661;SDS011;61528;49.456;11.098;2023-11-21T13:11:04;5.10;;;3.90;;
18661;SDS011;61528;49.456;11.098;2023-11-21T13:13:31;4.40;;;3.43;;
18661;SDS011;61528;49.456;11.098;2023-11-21T13:16:01;3.80;;;3.50;;
18661;SDS011;61528;49.456;11.098;2023-11-21T13:18:31;4.23;;;3.70;;
18661;SDS011;61528;49.456;11.098;2023-11-21T13:23:50;5.60;;;3.70;;
18661;SDS011;61528;49.456;11.098;2023-11-21T13:35:45;5.07;;;3.53;;
18661;SDS011;61528;49.456;11.098;2023-11-21T13:38:42;4.17;;;3.60;;
18661;SDS011;61528;49.456;11.098;2023-11-21T13:41:09;5.27;;;3.80;;
18661;SDS011;61528;49.456;11.098;2023-11-21T13:43:40;4.40;;;3.20;;
18661;SDS011;61528;49.456;11.098;2023-11-21T13:56:03;3.63;;;3.27;;
18661;SDS011;61528;49.456;11.098;2023-11-21T13:58:39;3.33;;;3.03;;
18661;SDS011;61528;49.456;11.098;2023-11-21T14:01:26;4.10;;;2.77;;
18661;SDS011;61528;49.456;11.098;2023-11-21T14:04:24;3.20;;;2.60;;
18661;SDS011;61528;49.456;11.098;2023-11-21T14:07:12;3.30;;;2.60;;
18661;SDS011;61528;49.456;11.098;2023-11-21T14:13:39;3.13;;;2.23;;
18661;SDS011;61528;49.456;11.098;2023-11-21T14:30:03;4.90;;;2.37;;
18661;SDS011;61528;49.456;11.098;2023-11-21T14:41:57;2.83;;;2.33;;
18661;SDS011;61528;49.456;11.098;2023-11-21T14:44:46;5.17;;;2.57;;
18661;SDS011;61528;49.456;11.098;2023-11-21T15:03:55;2.70;;;2.30;;
18661;SDS011;61528;49.456;11.098;2023-11-21T18:50:35;7.70;;;5.70;;
18661;SDS011;61528;49.456;11.098;2023-11-21T18:53:20;9.10;;;5.70;;
18661;SDS011;61528;49.456;11.098;2023-11-21T18:56:07;10.73;;;5.63;;
18661;SDS011;61528;49.456;11.098;2023-11-21T18:58:57;7.30;;;5.33;;
18661;SDS011;61528;49.456;11.098;2023-11-21T19:01:42;10.57;;;5.37;;
18661;SDS011;61528;49.456;11.098;2023-11-21T19:04:31;10.47;;;5.97;;
18661;SDS011;61528;49.456;11.098;2023-11-21T19:07:16;9.77;;;4.43;;
18661;SDS011;61528;49.456;11.098;2023-11-21T19:13:16;7.30;;;5.20;;
18661;SDS011;61528;49.456;11.098;2023-11-21T19:58:45;8.50;;;7.17;;
18661;SDS011;61528;49.456;11.098;2023-11-21T20:01:11;10.63;;;6.30;;
18661;SDS011;61528;49.456;11.098;2023-11-21T20:03:40;10.23;;;5.53;;
18661;SDS011;61528;49.456;11.098;2023-11-21T20:08:52;4.37;;;3.50;;
18661;SDS011;61528;49.456;11.098;2023-11-21T20:11:19;3.33;;;2.90;;
18661;SDS011;61528;49.456;11.098;2023-11-21T20:13:47;4.40;;;3.00;;
18661;SDS011;61528;49.456;11.098;2023-11-21T20:16:21;3.80;;;2.40;;
18661;SDS011;61528;49.456;11.098;2023-11-21T20:18:56;6.20;;;5.20;;
18661;SDS011;61528;49.456;11.098;2023-11-21T20:21:25;2.67;;;2.37;;
18661;SDS011;61528;49.456;11.098;2023-11-21T20:23:52;2.93;;;2.10;;
18661;SDS011;61528;49.456;11.098;2023-11-21T20:26:25;1.57;;;1.47;;
18661;SDS011;61528;49.456;11.098;2023-11-21T20:28:52;1.60;;;1.50;;
18661;SDS011;61528;49.456;11.098;2023-11-21T20:31:23;1.90;;;1.57;;
18661;SDS011;61528;49.456;11.098;2023-11-21T20:33:50;1.57;;;1.47;;
18661;SDS011;61528;49.456;11.098;2023-11-21T20:36:16;2.33;;;1.40;;
18661;SDS011;61528;49.456;11.098;2023-11-21T20:38:43;2.10;;;1.90;;
18661;SDS011;61528;49.456;11.098;2023-11-21T20:41:10;2.00;;;1.80;;
18661;SDS011;61528;49.456;11.098;2023-11-21T20:43:39;3.60;;;2.50;;
18661;SDS011;61528;49.456;11.098;2023-11-21T20:46:05;3.50;;;2.87;;
18661;SDS011;61528;49.456;11.098;2023-11-21T20:48:32;3.60;;;2.77;;
18661;SDS011;61528;49.456;11.098;2023-11-21T20:50:59;4.53;;;2.50;;
18661;SDS011;61528;49.456;11.098;2023-11-21T20:53:29;2.23;;;1.90;;
18661;SDS011;61528;49.456;11.098;2023-11-21T20:55:57;2.30;;;2.10;;
18661;SDS011;61528;49.456;11.098;2023-11-21T20:58:27;3.20;;;2.77;;
18661;SDS011;61528;49.456;11.098;2023-11-21T21:00:57;2.43;;;2.23;;
18661;SDS011;61528;49.456;11.098;2023-11-21T21:03:23;4.00;;;2.40;;
18661;SDS011;61528;49.456;11.098;2023-11-21T21:05:50;3.50;;;2.40;;
18661;SDS011;61528;49.456;11.098;2023-11-21T21:08:17;3.10;;;2.80;;
18661;SDS011;61528;49.456;11.098;2023-11-21T21:10:43;3.20;;;2.90;;
18661;SDS011;61528;49.456;11.098;2023-11-21T21:13:09;3.20;;;2.90;;
18661;SDS011;61528;49.456;11.098;2023-11-21T21:15:37;3.57;;;3.27;;
18661;SDS011;61528;49.456;11.098;2023-11-21T21:18:04;3.60;;;2.97;;
18661;SDS011;61528;49.456;11.098;2023-11-21T21:20:32;3.40;;;2.90;;
18661;SDS011;61528;49.456;11.098;2023-11-21T21:22:58;3.70;;;3.20;;